sensor_id;sensor_type;location;lat;lon;timestamp;pressure;altitude;pressure_sealevel;temperature;humidity
7109;BME280;29079;41.930;25.558;2023-05-02T00:02:24;100158.13;;;12.31;84.03
7109;BME280;29079;41.930;25.558;2023-05-02T00:04:58;100158.38;;;12.18;84.69
7109;BME280;29079;41.930;25.558;2023-05-02T00:07:31;100160.53;;;11.71;87.02
7109;BME280;29079;41.930;25.558;2023-05-02T00:10:06;100158.66;;;12.46;86.03
7109;BME280;29079;41.930;25.558;2023-05-02T00:12:39;100157.00;;;13.36;80.79
7109;BME280;29079;41.930;25.558;2023-05-02T00:15:11;100160.75;;;12.74;80.47
7109;BME280;29079;41.930;25.558;2023-05-02T00:17:45;100165.19;;;12.53;81.62
7109;BME280;29079;41.930;25.558;2023-05-02T00:20:18;100162.50;;;12.53;81.24
7109;BME280;29079;41.930;25.558;2023-05-02T00:22:51;100168.97;;;12.30;81.75
7109;BME280;29079;41.930;25.558;2023-05-02T00:25:26;100172.38;;;12.11;84.33
7109;BME280;29079;41.930;25.558;2023-05-02T00:27:59;100170.88;;;11.64;84.71
7109;BME280;29079;41.930;25.558;2023-05-02T00:30:32;100173.34;;;12.31;85.68
7109;BME280;29079;41.930;25.558;2023-05-02T00:33:04;100173.50;;;12.29;83.56
7109;BME280;29079;41.930;25.558;2023-05-02T00:35:37;100180.88;;;12.16;84.08
7109;BME280;29079;41.930;25.558;2023-05-02T00:38:11;100171.47;;;12.22;84.04
7109;BME280;29079;41.930;25.558;2023-05-02T00:40:46;100174.72;;;12.46;81.15
7109;BME280;29079;41.930;25.558;2023-05-02T00:43:19;100181.81;;;12.57;85.22
7109;BME280;29079;41.930;25.558;2023-05-02T00:45:52;100175.63;;;12.97;80.99
7109;BME280;29079;41.930;25.558;2023-05-02T00:48:25;100182.47;;;13.21;82.68
7109;BME280;29079;41.930;25.558;2023-05-02T00:50:58;100182.22;;;12.83;81.33
7109;BME280;29079;41.930;25.558;2023-05-02T00:53:35;100186.59;;;12.32;81.84
7109;BME280;29079;41.930;25.558;2023-05-02T00:56:10;100190.25;;;12.31;82.23
7109;BME280;29079;41.930;25.558;2023-05-02T00:58:43;100182.28;;;11.99;82.72
7109;BME280;29079;41.930;25.558;2023-05-02T01:01:21;100184.50;;;11.18;86.05
7109;BME280;29079;41.930;25.558;2023-05-02T01:04:00;100182.72;;;11.50;86.14
7109;BME280;29079;41.930;25.558;2023-05-02T01:06:38;100186.56;;;11.14;86.92
7109;BME280;29079;41.930;25.558;2023-05-02T01:09:21;100184.13;;;11.11;89.58
7109;BME280;29079;41.930;25.558;2023-05-02T01:12:00;100184.09;;;11.33;86.59
7109;BME280;29079;41.930;25.558;2023-05-02T01:14:35;100187.50;;;11.36;86.66
7109;BME280;29079;41.930;25.558;2023-05-02T01:17:13;100185.94;;;11.65;85.24
7109;BME280;29079;41.930;25.558;2023-05-02T01:19:49;100181.63;;;11.53;85.57
7109;BME280;29079;41.930;25.558;2023-05-02T01:22:23;100186.06;;;11.31;86.31
7109;BME280;29079;41.930;25.558;2023-05-02T01:24:59;100180.47;;;11.23;87.00
7109;BME280;29079;41.930;25.558;2023-05-02T01:27:39;100187.53;;;11.24;87.23
7109;BME280;29079;41.930;25.558;2023-05-02T01:30:16;100188.66;;;11.54;86.64
7109;BME280;29079;41.930;25.558;2023-05-02T01:32:51;100190.47;;;11.86;86.81
7109;BME280;29079;41.930;25.558;2023-05-02T01:35:23;100189.44;;;11.66;83.21
7109;BME280;29079;41.930;25.558;2023-05-02T01:37:58;100196.47;;;11.46;84.40
7109;BME280;29079;41.930;25.558;2023-05-02T01:40:32;100200.75;;;11.26;86.01
7109;BME280;29079;41.930;25.558;2023-05-02T01:43:05;100190.63;;;11.41;86.52
7109;BME280;29079;41.930;25.558;2023-05-02T01:45:40;100194.81;;;11.11;87.56
7109;BME280;29079;41.930;25.558;2023-05-02T01:48:15;100198.66;;;11.29;86.17
7109;BME280;29079;41.930;25.558;2023-05-02T01:50:50;100197.16;;;10.93;88.10
7109;BME280;29079;41.930;25.558;2023-05-02T01:53:23;100189.25;;;10.80;88.38
7109;BME280;29079;41.930;25.558;2023-05-02T01:55:56;100190.72;;;10.84;88.44
7109;BME280;29079;41.930;25.558;2023-05-02T01:58:31;100185.53;;;11.38;87.37
7109;BME280;29079;41.930;25.558;2023-05-02T02:01:07;100189.13;;;10.93;87.65
7109;BME280;29079;41.930;25.558;2023-05-02T02:03:41;100187.09;;;10.85;87.87
7109;BME280;29079;41.930;25.558;2023-05-02T02:06:14;100182.47;;;10.87;88.34
7109;BME280;29079;41.930;25.558;2023-05-02T02:08:47;100182.00;;;10.71;88.07
7109;BME280;29079;41.930;25.558;2023-05-02T02:11:22;100175.91;;;10.80;89.00
7109;BME280;29079;41.930;25.558;2023-05-02T02:13:57;100179.78;;;10.87;87.34
7109;BME280;29079;41.930;25.558;2023-05-02T02:16:36;100171.44;;;10.80;87.40
7109;BME280;29079;41.930;25.558;2023-05-02T02:19:09;100178.69;;;10.78;87.25
7109;BME280;29079;41.930;25.558;2023-05-02T02:21:44;100180.78;;;10.63;87.54
7109;BME280;29079;41.930;25.558;2023-05-02T02:24:19;100183.91;;;10.91;88.70
7109;BME280;29079;41.930;25.558;2023-05-02T02:26:54;100178.44;;;10.70;87.30
7109;BME280;29079;41.930;25.558;2023-05-02T02:29:27;100180.75;;;10.52;87.52
7109;BME280;29079;41.930;25.558;2023-05-02T02:32:01;100190.94;;;10.58;87.19
7109;BME280;29079;41.930;25.558;2023-05-02T02:34:34;100178.94;;;10.98;89.37
7109;BME280;29079;41.930;25.558;2023-05-02T02:37:07;100179.28;;;10.37;89.67
7109;BME280;29079;41.930;25.558;2023-05-02T02:39:43;100182.84;;;10.13;90.03
7109;BME280;29079;41.930;25.558;2023-05-02T02:42:21;100182.25;;;10.09;91.18
7109;BME280;29079;41.930;25.558;2023-05-02T02:45:00;100182.34;;;10.66;89.21
7109;BME280;29079;41.930;25.558;2023-05-02T02:47:40;100183.59;;;10.26;89.96
7109;BME280;29079;41.930;25.558;2023-05-02T02:50:15;100191.34;;;10.18;89.78
7109;BME280;29079;41.930;25.558;2023-05-02T02:52:52;100188.94;;;10.15;90.53
7109;BME280;29079;41.930;25.558;2023-05-02T02:55:29;100193.22;;;10.05;90.07
7109;BME280;29079;41.930;25.558;2023-05-02T02:58:06;100185.66;;;10.23;88.59
7109;BME280;29079;41.930;25.558;2023-05-02T03:00:45;100189.22;;;10.35;87.09
7109;BME280;29079;41.930;25.558;2023-05-02T03:03:21;100204.22;;;9.89;88.52
7109;BME280;29079;41.930;25.558;2023-05-02T03:05:55;100212.50;;;9.73;89.18
7109;BME280;29079;41.930;25.558;2023-05-02T03:08:28;100208.09;;;9.61;89.47
7109;BME280;29079;41.930;25.558;2023-05-02T03:11:10;100218.16;;;9.57;90.40
7109;BME280;29079;41.930;25.558;2023-05-02T03:13:43;100217.03;;;9.59;90.47
7109;BME280;29079;41.930;25.558;2023-05-02T03:19:17;100223.47;;;9.81;89.94
7109;BME280;29079;41.930;25.558;2023-05-02T03:21:50;100216.22;;;9.83;89.38
7109;BME280;29079;41.930;25.558;2023-05-02T03:24:23;100217.41;;;9.79;89.26
7109;BME280;29079;41.930;25.558;2023-05-02T03:26:58;100219.31;;;9.77;89.22
7109;BME280;29079;41.930;25.558;2023-05-02T03:29:31;100220.97;;;9.67;89.96
7109;BME280;29079;41.930;25.558;2023-05-02T03:32:04;100217.47;;;10.02;88.10
7109;BME280;29079;41.930;25.558;2023-05-02T03:34:38;100215.53;;;10.39;88.97
7109;BME280;29079;41.930;25.558;2023-05-02T03:37:13;100227.63;;;10.79;84.58
7109;BME280;29079;41.930;25.558;2023-05-02T03:39:46;100238.38;;;10.08;86.22
7109;BME280;29079;41.930;25.558;2023-05-02T03:42:20;100242.47;;;10.01;87.60
7109;BME280;29079;41.930;25.558;2023-05-02T03:44:52;100242.69;;;10.33;85.00
7109;BME280;29079;41.930;25.558;2023-05-02T03:47:25;100241.94;;;10.31;86.07
7109;BME280;29079;41.930;25.558;2023-05-02T03:50:00;100243.38;;;11.05;83.72
7109;BME280;29079;41.930;25.558;2023-05-02T03:52:33;100250.31;;;10.96;83.19
7109;BME280;29079;41.930;25.558;2023-05-02T03:55:06;100258.91;;;10.30;84.52
7109;BME280;29079;41.930;25.558;2023-05-02T03:57:39;100265.81;;;9.97;85.97
7109;BME280;29079;41.930;25.558;2023-05-02T04:00:12;100263.97;;;9.49;89.52
7109;BME280;29079;41.930;25.558;2023-05-02T04:02:45;100271.59;;;9.67;88.64
7109;BME280;29079;41.930;25.558;2023-05-02T04:05:20;100269.66;;;10.17;88.10
7109;BME280;29079;41.930;25.558;2023-05-02T04:07:53;100270.66;;;10.27;87.16
7109;BME280;29079;41.930;25.558;2023-05-02T04:10:26;100269.16;;;10.12;86.38
7109;BME280;29079;41.930;25.558;2023-05-02T04:12:59;100269.34;;;9.98;86.04
7109;BME280;29079;41.930;25.558;2023-05-02T04:15:33;100266.63;;;9.62;86.85
7109;BME280;29079;41.930;25.558;2023-05-02T04:18:06;100272.63;;;9.53;87.24
7109;BME280;29079;41.930;25.558;2023-05-02T04:20:42;100280.41;;;9.43;87.59
7109;BME280;29079;41.930;25.558;2023-05-02T04:23:15;100274.97;;;9.45;87.40
7109;BME280;29079;41.930;25.558;2023-05-02T04:25:49;100274.66;;;9.49;87.16
7109;BME280;29079;41.930;25.558;2023-05-02T04:28:22;100286.94;;;9.76;87.17
7109;BME280;29079;41.930;25.558;2023-05-02T04:30:55;100280.38;;;9.56;87.27
7109;BME280;29079;41.930;25.558;2023-05-02T04:33:29;100279.38;;;9.70;86.69
7109;BME280;29079;41.930;25.558;2023-05-02T04:36:04;100279.44;;;9.81;87.16
7109;BME280;29079;41.930;25.558;2023-05-02T04:38:37;100272.56;;;9.90;86.64
7109;BME280;29079;41.930;25.558;2023-05-02T04:41:10;100274.44;;;10.60;91.06
7109;BME280;29079;41.930;25.558;2023-05-02T04:43:43;100273.34;;;10.63;84.88
7109;BME280;29079;41.930;25.558;2023-05-02T04:46:16;100268.66;;;10.89;87.28
7109;BME280;29079;41.930;25.558;2023-05-02T04:48:49;100266.03;;;11.56;84.43
7109;BME280;29079;41.930;25.558;2023-05-02T04:51:24;100281.22;;;10.76;83.56
7109;BME280;29079;41.930;25.558;2023-05-02T04:53:58;100279.94;;;10.35;86.46
7109;BME280;29079;41.930;25.558;2023-05-02T04:56:32;100282.25;;;10.39;85.78
7109;BME280;29079;41.930;25.558;2023-05-02T04:59:05;100283.13;;;10.40;84.90
7109;BME280;29079;41.930;25.558;2023-05-02T05:01:38;100281.06;;;10.43;84.03
7109;BME280;29079;41.930;25.558;2023-05-02T05:04:11;100274.94;;;11.11;84.04
7109;BME280;29079;41.930;25.558;2023-05-02T05:06:46;100277.38;;;12.03;81.69
7109;BME280;29079;41.930;25.558;2023-05-02T05:09:20;100279.22;;;11.91;76.60
7109;BME280;29079;41.930;25.558;2023-05-02T05:11:52;100285.50;;;11.58;78.82
7109;BME280;29079;41.930;25.558;2023-05-02T05:14:25;100286.78;;;11.75;77.15
7109;BME280;29079;41.930;25.558;2023-05-02T05:16:58;100281.59;;;11.62;75.65
7109;BME280;29079;41.930;25.558;2023-05-02T05:19:31;100282.03;;;11.78;74.13
7109;BME280;29079;41.930;25.558;2023-05-02T05:22:05;100280.41;;;12.10;72.52
7109;BME280;29079;41.930;25.558;2023-05-02T05:24:38;100285.81;;;12.62;71.64
7109;BME280;29079;41.930;25.558;2023-05-02T05:27:11;100273.75;;;12.88;73.83
7109;BME280;29079;41.930;25.558;2023-05-02T05:29:44;100289.41;;;12.72;71.53
7109;BME280;29079;41.930;25.558;2023-05-02T05:32:18;100285.41;;;12.24;68.00
7109;BME280;29079;41.930;25.558;2023-05-02T05:34:50;100293.25;;;12.16;68.46
7109;BME280;29079;41.930;25.558;2023-05-02T05:37:25;100297.63;;;12.17;69.20
7109;BME280;29079;41.930;25.558;2023-05-02T05:39:58;100292.94;;;13.24;73.40
7109;BME280;29079;41.930;25.558;2023-05-02T05:42:34;100296.03;;;13.51;67.68
7109;BME280;29079;41.930;25.558;2023-05-02T05:45:08;100288.41;;;13.56;69.33
7109;BME280;29079;41.930;25.558;2023-05-02T05:47:41;100300.06;;;13.86;71.24
7109;BME280;29079;41.930;25.558;2023-05-02T05:50:14;100297.81;;;13.81;63.91
7109;BME280;29079;41.930;25.558;2023-05-02T05:52:48;100300.06;;;13.86;70.81
7109;BME280;29079;41.930;25.558;2023-05-02T05:55:21;100304.41;;;13.67;61.64
7109;BME280;29079;41.930;25.558;2023-05-02T05:57:54;100301.94;;;13.54;63.27
7109;BME280;29079;41.930;25.558;2023-05-02T06:00:27;100302.53;;;13.58;68.27
7109;BME280;29079;41.930;25.558;2023-05-02T06:03:00;100305.69;;;13.73;64.60
7109;BME280;29079;41.930;25.558;2023-05-02T06:05:35;100308.25;;;14.04;67.42
7109;BME280;29079;41.930;25.558;2023-05-02T06:08:09;100313.47;;;13.86;59.84
7109;BME280;29079;41.930;25.558;2023-05-02T06:10:42;100302.66;;;13.47;59.02
7109;BME280;29079;41.930;25.558;2023-05-02T06:13:15;100309.41;;;13.91;60.75
7109;BME280;29079;41.930;25.558;2023-05-02T06:15:48;100307.16;;;14.45;69.94
7109;BME280;29079;41.930;25.558;2023-05-02T06:18:21;100315.06;;;14.57;65.12
7109;BME280;29079;41.930;25.558;2023-05-02T06:20:54;100315.06;;;14.37;59.30
7109;BME280;29079;41.930;25.558;2023-05-02T06:23:28;100312.53;;;14.45;54.63
7109;BME280;29079;41.930;25.558;2023-05-02T06:26:01;100315.34;;;14.34;58.31
7109;BME280;29079;41.930;25.558;2023-05-02T06:28:34;100313.94;;;14.40;54.44
7109;BME280;29079;41.930;25.558;2023-05-02T06:31:07;100317.88;;;14.26;55.57
7109;BME280;29079;41.930;25.558;2023-05-02T06:33:40;100312.06;;;14.79;63.14
7109;BME280;29079;41.930;25.558;2023-05-02T06:36:13;100317.28;;;14.91;55.12
7109;BME280;29079;41.930;25.558;2023-05-02T06:38:47;100310.25;;;14.70;56.20
7109;BME280;29079;41.930;25.558;2023-05-02T06:41:20;100317.47;;;14.60;58.91
7109;BME280;29079;41.930;25.558;2023-05-02T06:43:53;100314.50;;;14.63;55.95
7109;BME280;29079;41.930;25.558;2023-05-02T06:46:27;100310.75;;;15.03;64.67
7109;BME280;29079;41.930;25.558;2023-05-02T06:49:01;100312.03;;;14.99;54.85
7109;BME280;29079;41.930;25.558;2023-05-02T06:51:35;100306.03;;;15.15;57.24
7109;BME280;29079;41.930;25.558;2023-05-02T06:54:09;100316.69;;;14.97;63.71
7109;BME280;29079;41.930;25.558;2023-05-02T06:56:42;100317.63;;;14.68;53.12
7109;BME280;29079;41.930;25.558;2023-05-02T06:59:15;100315.63;;;14.70;51.06
7109;BME280;29079;41.930;25.558;2023-05-02T07:01:48;100318.09;;;15.01;58.29
7109;BME280;29079;41.930;25.558;2023-05-02T07:04:21;100312.81;;;15.19;54.23
7109;BME280;29079;41.930;25.558;2023-05-02T07:06:54;100319.56;;;15.23;52.10
7109;BME280;29079;41.930;25.558;2023-05-02T07:09:28;100309.28;;;15.19;51.14
7109;BME280;29079;41.930;25.558;2023-05-02T07:12:01;100313.72;;;15.38;48.32
7109;BME280;29079;41.930;25.558;2023-05-02T07:14:37;100317.97;;;15.40;48.05
7109;BME280;29079;41.930;25.558;2023-05-02T07:17:10;100310.81;;;15.59;49.83
7109;BME280;29079;41.930;25.558;2023-05-02T07:19:42;100311.16;;;15.46;50.11
7109;BME280;29079;41.930;25.558;2023-05-02T07:22:16;100306.09;;;15.61;48.16
7109;BME280;29079;41.930;25.558;2023-05-02T07:24:57;100309.41;;;15.55;47.04
7109;BME280;29079;41.930;25.558;2023-05-02T07:27:30;100308.69;;;15.90;47.83
7109;BME280;29079;41.930;25.558;2023-05-02T07:30:03;100312.09;;;15.82;52.73
7109;BME280;29079;41.930;25.558;2023-05-02T07:32:37;100314.59;;;15.94;52.50
7109;BME280;29079;41.930;25.558;2023-05-02T07:35:10;100307.75;;;15.99;49.09
7109;BME280;29079;41.930;25.558;2023-05-02T07:37:43;100311.06;;;16.11;48.39
7109;BME280;29079;41.930;25.558;2023-05-02T07:40:17;100314.06;;;16.08;47.66
7109;BME280;29079;41.930;25.558;2023-05-02T07:42:51;100307.75;;;16.17;48.20
7109;BME280;29079;41.930;25.558;2023-05-02T07:45:24;100307.75;;;16.17;47.84
7109;BME280;29079;41.930;25.558;2023-05-02T07:47:58;100301.75;;;16.06;47.62
7109;BME280;29079;41.930;25.558;2023-05-02T07:50:31;100308.00;;;16.06;49.90
7109;BME280;29079;41.930;25.558;2023-05-02T07:53:04;100309.06;;;16.13;49.26
7109;BME280;29079;41.930;25.558;2023-05-02T07:55:38;100305.97;;;16.08;54.80
7109;BME280;29079;41.930;25.558;2023-05-02T07:58:11;100304.06;;;16.18;52.50
7109;BME280;29079;41.930;25.558;2023-05-02T08:00:43;100298.91;;;16.43;48.84
7109;BME280;29079;41.930;25.558;2023-05-02T08:03:17;100295.91;;;16.73;47.86
7109;BME280;29079;41.930;25.558;2023-05-02T08:05:50;100300.94;;;16.67;46.58
7109;BME280;29079;41.930;25.558;2023-05-02T08:08:22;100305.94;;;16.80;45.98
7109;BME280;29079;41.930;25.558;2023-05-02T08:10:56;100297.84;;;16.80;49.27
7109;BME280;29079;41.930;25.558;2023-05-02T08:13:30;100307.59;;;16.99;46.59
7109;BME280;29079;41.930;25.558;2023-05-02T08:16:03;100300.28;;;16.92;46.98
7109;BME280;29079;41.930;25.558;2023-05-02T08:18:37;100299.19;;;17.02;47.85
7109;BME280;29079;41.930;25.558;2023-05-02T08:21:10;100294.91;;;17.26;47.37
7109;BME280;29079;41.930;25.558;2023-05-02T08:23:43;100298.44;;;17.27;47.76
7109;BME280;29079;41.930;25.558;2023-05-02T08:26:18;100286.59;;;17.11;47.66
7109;BME280;29079;41.930;25.558;2023-05-02T08:28:52;100290.84;;;17.22;46.00
7109;BME280;29079;41.930;25.558;2023-05-02T08:31:25;100284.66;;;17.30;45.42
7109;BME280;29079;41.930;25.558;2023-05-02T08:33:58;100285.41;;;17.48;44.22
7109;BME280;29079;41.930;25.558;2023-05-02T08:36:31;100290.16;;;17.63;44.29
7109;BME280;29079;41.930;25.558;2023-05-02T08:39:04;100279.69;;;17.60;42.10
7109;BME280;29079;41.930;25.558;2023-05-02T08:41:40;100275.00;;;17.70;43.45
7109;BME280;29079;41.930;25.558;2023-05-02T08:44:13;100268.31;;;17.82;42.36
7109;BME280;29079;41.930;25.558;2023-05-02T08:46:46;100273.00;;;17.80;40.45
7109;BME280;29079;41.930;25.558;2023-05-02T08:49:20;100281.09;;;17.80;39.36
7109;BME280;29079;41.930;25.558;2023-05-02T08:51:54;100276.41;;;17.82;40.56
7109;BME280;29079;41.930;25.558;2023-05-02T08:54:27;100279.50;;;18.12;39.89
7109;BME280;29079;41.930;25.558;2023-05-02T08:57:02;100278.34;;;18.31;35.88
7109;BME280;29079;41.930;25.558;2023-05-02T08:59:35;100279.69;;;18.19;36.96
7109;BME280;29079;41.930;25.558;2023-05-02T09:04:57;100278.00;;;18.18;36.77
7109;BME280;29079;41.930;25.558;2023-05-02T09:07:41;100269.75;;;18.27;38.27
7109;BME280;29079;41.930;25.558;2023-05-02T09:10:15;100262.31;;;18.38;36.59
7109;BME280;29079;41.930;25.558;2023-05-02T09:12:49;100247.59;;;18.32;37.58
7109;BME280;29079;41.930;25.558;2023-05-02T09:15:22;100258.56;;;18.55;36.84
7109;BME280;29079;41.930;25.558;2023-05-02T09:17:57;100260.28;;;18.48;37.23
7109;BME280;29079;41.930;25.558;2023-05-02T09:20:40;100252.81;;;18.58;37.39
7109;BME280;29079;41.930;25.558;2023-05-02T09:23:13;100247.06;;;18.78;37.31
7109;BME280;29079;41.930;25.558;2023-05-02T09:25:46;100233.72;;;18.76;37.13
7109;BME280;29079;41.930;25.558;2023-05-02T09:28:20;100231.53;;;18.88;36.46
7109;BME280;29079;41.930;25.558;2023-05-02T09:31:09;100233.84;;;18.83;35.33
7109;BME280;29079;41.930;25.558;2023-05-02T09:33:42;100228.44;;;19.00;35.23
7109;BME280;29079;41.930;25.558;2023-05-02T09:36:15;100225.09;;;18.81;36.73
7109;BME280;29079;41.930;25.558;2023-05-02T09:38:49;100223.22;;;18.98;37.48
7109;BME280;29079;41.930;25.558;2023-05-02T09:41:22;100219.97;;;19.03;36.26
7109;BME280;29079;41.930;25.558;2023-05-02T09:43:56;100222.88;;;18.93;36.99
7109;BME280;29079;41.930;25.558;2023-05-02T09:46:30;100227.28;;;18.77;38.11
7109;BME280;29079;41.930;25.558;2023-05-02T09:49:11;100213.25;;;18.82;36.77
7109;BME280;29079;41.930;25.558;2023-05-02T09:51:45;100211.75;;;18.79;36.00
7109;BME280;29079;41.930;25.558;2023-05-02T09:54:32;100210.72;;;18.89;34.91
7109;BME280;29079;41.930;25.558;2023-05-02T09:57:06;100216.06;;;19.05;36.32
7109;BME280;29079;41.930;25.558;2023-05-02T09:59:51;100209.19;;;18.94;37.16
7109;BME280;29079;41.930;25.558;2023-05-02T10:02:24;100206.03;;;19.22;35.78
7109;BME280;29079;41.930;25.558;2023-05-02T10:04:57;100208.47;;;19.01;34.68
7109;BME280;29079;41.930;25.558;2023-05-02T10:07:33;100205.03;;;19.15;35.89
7109;BME280;29079;41.930;25.558;2023-05-02T10:10:06;100213.72;;;19.02;34.41
7109;BME280;29079;41.930;25.558;2023-05-02T10:12:39;100207.78;;;19.07;34.38
7109;BME280;29079;41.930;25.558;2023-05-02T10:15:14;100200.59;;;19.22;36.88
7109;BME280;29079;41.930;25.558;2023-05-02T10:17:48;100195.78;;;19.41;34.78
7109;BME280;29079;41.930;25.558;2023-05-02T10:20:24;100189.69;;;19.70;34.55
7109;BME280;29079;41.930;25.558;2023-05-02T10:22:59;100187.72;;;20.10;34.14
7109;BME280;29079;41.930;25.558;2023-05-02T10:25:35;100192.78;;;19.90;32.97
7109;BME280;29079;41.930;25.558;2023-05-02T10:28:08;100181.41;;;19.40;35.39
7109;BME280;29079;41.930;25.558;2023-05-02T10:30:43;100172.69;;;19.76;33.92
7109;BME280;29079;41.930;25.558;2023-05-02T10:33:16;100174.19;;;19.87;35.86
7109;BME280;29079;41.930;25.558;2023-05-02T10:35:50;100178.88;;;19.93;32.93
7109;BME280;29079;41.930;25.558;2023-05-02T10:38:23;100180.25;;;19.89;35.04
7109;BME280;29079;41.930;25.558;2023-05-02T10:40:57;100181.88;;;19.75;33.64
7109;BME280;29079;41.930;25.558;2023-05-02T10:43:33;100178.94;;;19.85;32.35
7109;BME280;29079;41.930;25.558;2023-05-02T10:49:02;100179.03;;;20.15;32.40
7109;BME280;29079;41.930;25.558;2023-05-02T10:51:36;100188.50;;;20.19;33.37
7109;BME280;29079;41.930;25.558;2023-05-02T10:54:19;100178.56;;;20.11;32.05
7109;BME280;29079;41.930;25.558;2023-05-02T10:57:02;100164.88;;;20.28;33.82
7109;BME280;29079;41.930;25.558;2023-05-02T10:59:36;100170.94;;;20.30;32.84
7109;BME280;29079;41.930;25.558;2023-05-02T11:05:03;100180.00;;;20.22;32.52
7109;BME280;29079;41.930;25.558;2023-05-02T11:07:36;100165.41;;;20.23;33.15
7109;BME280;29079;41.930;25.558;2023-05-02T11:10:23;100176.25;;;20.23;32.64
7109;BME280;29079;41.930;25.558;2023-05-02T11:12:57;100172.88;;;20.21;35.55
7109;BME280;29079;41.930;25.558;2023-05-02T11:18:23;100175.25;;;20.39;32.62
7109;BME280;29079;41.930;25.558;2023-05-02T11:23:46;100178.81;;;20.40;34.43
7109;BME280;29079;41.930;25.558;2023-05-02T11:26:19;100179.50;;;20.18;33.44
7109;BME280;29079;41.930;25.558;2023-05-02T11:28:53;100177.28;;;20.37;34.01
7109;BME280;29079;41.930;25.558;2023-05-02T11:34:18;100160.72;;;20.17;33.51
7109;BME280;29079;41.930;25.558;2023-05-02T11:36:50;100171.66;;;20.24;30.62
7109;BME280;29079;41.930;25.558;2023-05-02T11:39:25;100160.25;;;20.13;31.73
7109;BME280;29079;41.930;25.558;2023-05-02T11:41:57;100158.69;;;20.19;31.61
7109;BME280;29079;41.930;25.558;2023-05-02T11:44:30;100164.88;;;20.28;32.63
7109;BME280;29079;41.930;25.558;2023-05-02T11:47:03;100153.19;;;20.42;34.06
7109;BME280;29079;41.930;25.558;2023-05-02T11:49:35;100154.09;;;20.34;33.99
7109;BME280;29079;41.930;25.558;2023-05-02T11:52:10;100165.50;;;20.15;33.79
7109;BME280;29079;41.930;25.558;2023-05-02T11:54:44;100147.06;;;19.95;35.92
7109;BME280;29079;41.930;25.558;2023-05-02T11:57:17;100137.97;;;19.88;35.92
7109;BME280;29079;41.930;25.558;2023-05-02T11:59:51;100151.41;;;19.96;37.13
7109;BME280;29079;41.930;25.558;2023-05-02T12:02:34;100153.19;;;19.89;34.55
7109;BME280;29079;41.930;25.558;2023-05-02T12:05:07;100136.34;;;19.79;33.28
7109;BME280;29079;41.930;25.558;2023-05-02T12:07:41;100146.56;;;19.92;39.87
7109;BME280;29079;41.930;25.558;2023-05-02T12:10:16;100129.97;;;20.10;39.11
7109;BME280;29079;41.930;25.558;2023-05-02T12:12:49;100131.97;;;20.16;34.27
7109;BME280;29079;41.930;25.558;2023-05-02T12:15:22;100128.88;;;20.19;37.02
7109;BME280;29079;41.930;25.558;2023-05-02T12:17:56;100120.44;;;20.14;35.14
7109;BME280;29079;41.930;25.558;2023-05-02T12:20:29;100121.94;;;20.16;40.53
7109;BME280;29079;41.930;25.558;2023-05-02T12:23:02;100119.53;;;20.22;36.01
7109;BME280;29079;41.930;25.558;2023-05-02T12:25:39;100116.34;;;20.33;35.62
7109;BME280;29079;41.930;25.558;2023-05-02T12:28:12;100110.47;;;20.14;36.03
7109;BME280;29079;41.930;25.558;2023-05-02T12:30:46;100114.31;;;20.35;37.77
7109;BME280;29079;41.930;25.558;2023-05-02T12:33:19;100108.59;;;20.30;33.92
7109;BME280;29079;41.930;25.558;2023-05-02T12:35:52;100103.47;;;20.50;34.84
7109;BME280;29079;41.930;25.558;2023-05-02T12:38:24;100102.53;;;20.58;37.30
7109;BME280;29079;41.930;25.558;2023-05-02T12:40:59;100088.97;;;20.13;34.03
7109;BME280;29079;41.930;25.558;2023-05-02T12:43:42;100085.41;;;20.27;36.77
7109;BME280;29079;41.930;25.558;2023-05-02T12:46:14;100086.00;;;20.38;36.04
7109;BME280;29079;41.930;25.558;2023-05-02T12:48:47;100078.69;;;20.53;35.98
7109;BME280;29079;41.930;25.558;2023-05-02T12:51:32;100075.50;;;20.64;37.56
7109;BME280;29079;41.930;25.558;2023-05-02T12:54:05;100067.94;;;20.75;38.61
7109;BME280;29079;41.930;25.558;2023-05-02T12:56:40;100062.06;;;20.41;34.72
7109;BME280;29079;41.930;25.558;2023-05-02T12:59:24;100062.34;;;20.46;36.16
7109;BME280;29079;41.930;25.558;2023-05-02T13:01:57;100058.31;;;20.57;36.81
7109;BME280;29079;41.930;25.558;2023-05-02T13:04:33;100054.97;;;20.55;39.97
7109;BME280;29079;41.930;25.558;2023-05-02T13:07:07;100044.31;;;20.68;35.29
7109;BME280;29079;41.930;25.558;2023-05-02T13:09:39;100040.94;;;20.66;38.93
7109;BME280;29079;41.930;25.558;2023-05-02T13:12:13;100043.34;;;20.61;35.39
7109;BME280;29079;41.930;25.558;2023-05-02T13:14:46;100047.28;;;20.74;35.00
7109;BME280;29079;41.930;25.558;2023-05-02T13:17:19;100037.44;;;20.58;35.51
7109;BME280;29079;41.930;25.558;2023-05-02T13:19:53;100033.72;;;20.74;38.99
7109;BME280;29079;41.930;25.558;2023-05-02T13:22:32;100043.06;;;20.56;36.80
7109;BME280;29079;41.930;25.558;2023-05-02T13:25:06;100043.25;;;20.55;35.41
7109;BME280;29079;41.930;25.558;2023-05-02T13:27:40;100041.59;;;20.39;33.84
7109;BME280;29079;41.930;25.558;2023-05-02T13:30:13;100038.97;;;20.45;33.32
7109;BME280;29079;41.930;25.558;2023-05-02T13:32:46;100033.16;;;20.63;36.16
7109;BME280;29079;41.930;25.558;2023-05-02T13:35:19;100031.84;;;20.59;34.04
7109;BME280;29079;41.930;25.558;2023-05-02T13:37:52;100037.63;;;20.56;33.79
7109;BME280;29079;41.930;25.558;2023-05-02T13:40:25;100032.44;;;20.40;34.29
7109;BME280;29079;41.930;25.558;2023-05-02T13:42:59;100044.78;;;20.42;34.47
7109;BME280;29079;41.930;25.558;2023-05-02T13:45:31;100051.09;;;20.64;34.69
7109;BME280;29079;41.930;25.558;2023-05-02T13:48:05;100049.06;;;20.66;38.81